METAR Data
IDs: Format: Raw Decoded Include TAF

Data at: 1706 UTC 19 Sep 2018

KLCG 191655Z AUTO 10013G16KT 10SM BKN015 23/20 A2991 RMK AO2 T02330203
KLCG 191635Z AUTO 10012G16KT 10SM BKN015 BKN027 22/19 A2991 RMK AO2 LTG DSNT NW T02200193
KLCG 191615Z AUTO 10013KT 10SM BKN013 BKN025 BKN030 22/19 A2992 RMK AO2 T02210194
KLCG 191555Z AUTO 09012KT 10SM BKN013 BKN030 BKN070 22/19 A2992 RMK AO2 T02180191
KLCG 191535Z AUTO 09012KT 10SM BKN015 OVC030 21/18 A2992 RMK AO2 T02110183
KLCG 191515Z AUTO 08012G15KT 10SM OVC032 21/19 A2993 RMK AO2 T02140187
KLCG 191455Z AUTO 09010KT 10SM OVC030 21/18 A2993 RMK AO2 P0003 60003 T02070180
KLCG 191435Z AUTO 11009KT 10SM OVC030 21/18 A2992 RMK AO2 P0003 T02050177
KLCG 191355Z AUTO 11009G18KT 10SM SCT030 SCT075 BKN120 21/20 A2992 RMK AO2 LTG DSNT N T02100204
KLCG 191335Z AUTO 11013G21KT 10SM SCT120 21/20 A2990 RMK AO2 LTG DSNT N AND NE T02050199
KLCG 191315Z AUTO 11012G16KT 10SM CLR 20/19 A2990 RMK AO2 T01970191
KLCG 191255Z AUTO 11012G15KT 10SM SCT029 SCT120 19/19 A2990 RMK AO2 T01910186
KLCG 191235Z AUTO 12011KT 10SM BKN029 OVC120 19/18 A2990 RMK AO2 LTG DSNT N AND NE T01900183
KLCG 191215Z AUTO 11012G17KT 10SM SCT025 OVC029 19/18 A2991 RMK AO2 T01900184
KLCG 191155Z AUTO 09010KT 10SM SCT008 OVC021 19/18 A2992 RMK AO2 70046 T01870181 10192 20178
KLCG 191135Z AUTO 07009KT 10SM OVC019 19/19 A2993 RMK AO2 LTG DSNT N AND W T01900185
KLCG 191115Z AUTO 06009KT 10SM VCTS OVC017 19/19 A2992 RMK AO2 LTG DSNT NE AND NW T01910185
KLCG 191055Z AUTO 08006KT 7SM OVC015 19/19 A2991 RMK AO2 T01900185
KLCG 191035Z AUTO 05007KT 10SM BKN007 OVC011 19/18 A2991 RMK AO2 T01870181
KLCG 191015Z AUTO 05008KT 7SM VCTS OVC003 19/18 A2991 RMK AO2 LTG DSNT NE T01850179
KLCG 190955Z AUTO 36015G20KT 10SM OVC003 18/18 A2991 RMK AO2 T01830177
KLCG 190935Z AUTO 10004KT 10SM VCTS OVC003 18/18 A2986 RMK AO2 LTG DSNT N T01810175
KLCG 190915Z AUTO 00000KT 10SM OVC003 18/17 A2986 RMK AO2 LTG DSNT N AND NE T01800174
KLCG 190855Z AUTO 15006KT 10SM BKN005 OVC017 18/17 A2985 RMK AO2 LTG DSNT N AND NW T01800173
KLCG 190835Z AUTO 13005KT 10SM BKN005 OVC017 18/17 A2986 RMK AO2 LTG DSNT NW THRU E T01780172
KLCG 190815Z AUTO 11005KT 10SM OVC005 18/17 A2988 RMK AO2 LTG DSNT N AND NW T01800173
KLCG 190755Z AUTO 11004KT 10SM BKN005 BKN070 OVC095 18/17 A2989 RMK AO2 LTG DSNT N AND NW T01800173
KLCG 190735Z AUTO 10005KT 10SM SCT005 BKN060 OVC095 18/18 A2989 RMK AO2 LTG DSNT NW T01810175
KLCG 190715Z AUTO 09005KT 10SM BKN060 OVC080 18/18 A2991 RMK AO2 T01820176
KLCG 190655Z AUTO 09006KT 10SM BKN060 BKN070 OVC085 18/18 A2992 RMK AO2 T01820176
KLCG 190635Z AUTO 09007KT 10SM BKN060 OVC070 18/18 A2992 RMK AO2 T01830177
KLCG 190615Z AUTO 10006KT 10SM BKN060 BKN075 18/18 A2993 RMK AO2 T01830177
KLCG 190555Z AUTO 10006KT 10SM SCT060 BKN075 18/18 A2993 RMK AO2 LTG DSNT SE T01830177 10215 20170 402320170
KLCG 190535Z AUTO 07006KT 10SM OVC075 18/18 A2993 RMK AO2 T01830177
KLCG 190515Z AUTO 07005KT 10SM SCT075 18/18 A2993 RMK AO2 T01800175
KLCG 190455Z AUTO 08005KT 10SM CLR 18/17 A2993 RMK AO2 T01750169
KLCG 190435Z AUTO 00000KT 10SM SCT070 17/17 A2993 RMK AO2 LTG DSNT SE T01710165
KLCG 190415Z AUTO 00000KT 10SM CLR 18/17 A2993 RMK AO2 T01790173
KLCG 190355Z AUTO 10004KT 10SM CLR 18/17 A2993 RMK AO2 T01780173
KLCG 190335Z AUTO 00000KT 10SM SCT070 18/17 A2993 RMK AO2 T01780172
KLCG 190315Z AUTO 00000KT 10SM SCT065 BKN080 18/18 A2994 RMK AO2 LTG DSNT SE T01800175
KLCG 190255Z AUTO 00000KT 10SM SCT065 18/17 A2994 RMK AO2 T01780172
KLCG 190235Z AUTO 00000KT 10SM CLR 18/17 A2993 RMK AO2 T01790173
KLCG 190215Z AUTO 10004KT 10SM CLR 18/18 A2993 RMK AO2 T01800175
KLCG 190155Z AUTO 08004KT 10SM CLR 18/17 A2993 RMK AO2 T01800173
KLCG 190135Z AUTO 00000KT 10SM CLR 18/18 A2993 RMK AO2 T01810175
KLCG 190115Z AUTO 13003KT 10SM CLR 18/18 A2993 RMK AO2 T01840178
KLCG 190055Z AUTO 12003KT 10SM CLR 19/19 A2992 RMK AO2 T01910185
KLCG 190035Z AUTO 14003KT 10SM CLR 20/20 A2992 RMK AO2 T02030197
KLCG 190015Z AUTO 13004KT 10SM CLR 21/21 A2991 RMK AO2 T02110205
KLCG 182355Z AUTO 13006KT 10SM CLR 22/21 A2991 RMK AO2 T02160210 10231 20188
KLCG 182335Z AUTO 15007KT 10SM CLR 22/21 A2991 RMK AO2 T02180212
KLCG 182315Z AUTO 15007KT 10SM SCT015 22/21 A2991 RMK AO2 T02160210
KLCG 182255Z AUTO 12006KT 10SM BKN015 22/21 A2991 RMK AO2 T02170211
KLCG 182235Z AUTO 14009KT 10SM OVC015 22/21 A2991 RMK AO2 T02160210
KLCG 182215Z AUTO 14010KT 10SM OVC015 22/21 A2991 RMK AO2 T02190213
KLCG 182155Z AUTO 14007KT 10SM BKN013 22/22 A2989 RMK AO2 LTG DSNT SE T02220216
KLCG 182135Z AUTO 14005KT 10SM BKN013 22/22 A2990 RMK AO2 LTG DSNT SE AND S T02210215
KLCG 182115Z AUTO 16010KT 10SM OVC011 22/21 A2991 RMK AO2 T02170211
KLCG 182055Z AUTO 17006KT 10SM OVC011 22/21 A2993 RMK AO2 LTG DSNT SE AND S T02150209
KLCG 182035Z AUTO 15006KT 10SM OVC009 22/21 A2991 RMK AO2 T02170211
KLCG 182015Z AUTO 16009KT 120V180 10SM OVC009 22/21 A2990 RMK AO2 LTG DSNT SE THRU SW T02190213
KLCG 181955Z AUTO 11005KT 10SM BKN007 OVC011 21/21 A2991 RMK AO2 LTG DSNT S T02130206
KLCG 181935Z AUTO 12006KT 10SM -DZ OVC007 21/21 A2992 RMK AO2 LTG DSNT SE AND SW T02110205
KLCG 181915Z AUTO 12008KT 10SM -RA OVC007 20/20 A2993 RMK AO2 LTG DSNT SE AND S T02020196
KLCG 181855Z AUTO 00000KT 10SM -VCTSRA OVC007 20/19 A2996 RMK AO2 T01980192
KLCG 181835Z AUTO 13004KT 10SM OVC007 20/19 A2996 RMK AO2 LTG DSNT E THRU SW T01950190
KLCG 181815Z AUTO 06009KT 10SM VCTS OVC005 19/19 A2996 RMK AO2 LTG DSNT SE AND SW T01940187
KLCG 181755Z AUTO 08012KT 10SM -RA OVC007 19/18 A2995 RMK AO2 LTG DSNT E THRU SW 60046 T01880182 10215 20183
KLCG 181735Z AUTO 19004KT 10SM -VCTSRA OVC007 19/18 A3000 RMK AO2 LTG DSNT E THRU S T01860180
KLCG 181715Z AUTO 08013KT 10SM -RA BKN009 BKN012 19/18 A2995 RMK AO2 LTG DSNT ALQS T01880182
KLCG 181655Z AUTO 17009G22KT 10SM TS SCT070 SCT085 SCT110 19/18 A2999 RMK AO2 LTG DSNT E THRU S P0003 T01900183
KLCG 181635Z AUTO 13019G26KT 10SM -RA SCT070 BKN100 OVC120 19/18 A2993 RMK AO2 LTG DSNT E THRU S P0003 T01850180
KLCG 181615Z AUTO 12020G32KT 10SM -RA SCT039 BKN100 OVC120 19/18 A2993 RMK AO2 LTG DSNT ALQS P0002 T01850178
KLCG 181555Z AUTO 10011G14KT 5SM TSRA SCT016 BKN039 OVC090 18/18 A2997 RMK AO2 LTG DSNT ALQS P0043 T01830177
KLCG 181535Z AUTO 09009KT 1 3/4SM +TSRA SCT015 BKN021 OVC070 20/19 A3000 RMK AO2 LTG DSNT ALQS P0028 T01960190
KLCG 181515Z AUTO 10017G25KT 10SM TS BKN070 OVC080 21/19 A2993 RMK AO2 LTG DSNT SW THRU N T02070185
KLCG 181455Z AUTO 07018G23KT 10SM SCT030 OVC080 21/19 A2994 RMK AO2 LTG DSNT NE AND W T02100191
KLCG 181435Z AUTO 07017KT 10SM SCT075 OVC090 22/20 A2993 RMK AO2 LTG DSNT NE AND W T02150196
KLCG 181415Z AUTO 07014KT 10SM SCT023 SCT075 OVC090 20/20 A2993 RMK AO2 LTG DSNT NE T02030197
KLCG 181355Z AUTO 03011KT 10SM OVC021 20/19 A2995 RMK AO2 LTG DSNT N T01980192
KLCG 181335Z AUTO 04006KT 10SM OVC019 20/19 A2994 RMK AO2 LTG DSNT N T01970191
KLCG 181315Z AUTO 05006KT 10SM OVC019 19/19 A2993 RMK AO2 LTG DSNT NW THRU NE T01930187
KLCG 181255Z AUTO 04007KT 10SM OVC017 19/18 A2994 RMK AO2 LTG DSNT NE AND NW T01890183
KLCG 181235Z AUTO 02008KT 10SM SCT008 OVC015 19/18 A2994 RMK AO2 LTG DSNT NW T01860180
KLCG 181215Z AUTO 36009G20KT 10SM BKN010 BKN017 BKN023 19/18 A2994 RMK AO2 T01860180
KLCG 181155Z AUTO 35015G23KT 10SM SCT012 BKN017 BKN023 20/20 A2994 RMK AO2 T02010195 10232 20201
KLCG 181135Z AUTO 32006KT 10SM SCT021 BKN080 OVC100 23/22 A2992 RMK AO2 T02280222
KLCG 181115Z AUTO 23003KT 10SM BKN080 23/22 A2989 RMK AO2 T02250219
KLCG 181055Z AUTO 00000KT 10SM CLR 22/21 A2988 RMK AO2 T02170211
KLCG 181035Z AUTO 19004KT 10SM CLR 22/21 A2988 RMK AO2 LTG DSNT N T02190212
KLCG 181015Z AUTO 17005KT 10SM CLR 22/22 A2987 RMK AO2 T02200215
KLCG 180955Z AUTO 16003KT 10SM CLR 22/22 A2988 RMK AO2 T02230218
KLCG 180935Z AUTO 18004KT 10SM CLR 22/21 A2988 RMK AO2 T02200214
KLCG 180915Z AUTO 18004KT 10SM CLR 23/22 A2988 RMK AO2 T02290223
KLCG 180855Z AUTO 00000KT 10SM CLR 23/22 A2988 RMK AO2 T02290222
KLCG 180835Z AUTO 00000KT 10SM CLR 23/22 A2988 RMK AO2 T02280222
KLCG 180815Z AUTO 00000KT 10SM CLR 23/22 A2988 RMK AO2 T02280222
KLCG 180755Z AUTO 00000KT 10SM CLR 23/22 A2988 RMK AO2 T02260220
KLCG 180735Z AUTO 00000KT 10SM CLR 22/22 A2989 RMK AO2 T02220216
KLCG 180715Z AUTO 21005KT 10SM CLR 22/21 A2989 RMK AO2 T02180212
KLCG 180655Z AUTO 00000KT 10SM CLR 22/21 A2990 RMK AO2 T02160210
KLCG 180635Z AUTO 21003KT 10SM CLR 22/22 A2990 RMK AO2 T02220216
KLCG 180615Z AUTO 16003KT 10SM CLR 23/22 A2990 RMK AO2 T02250220
KLCG 180555Z AUTO 12003KT 10SM CLR 22/22 A2991 RMK AO2 T02210215 10282 20221
KLCG 180535Z AUTO 10003KT 10SM CLR 22/22 A2991 RMK AO2 T02230217
KLCG 180515Z AUTO 10004KT 10SM CLR 23/22 A2991 RMK AO2 T02250219